sensor_id;sensor_type;location;lat;lon;timestamp;P1;durP1;ratioP1;P2;durP2;ratioP2
21894;SDS011;11112;51.270;7.224;2023-02-13T00:01:04;13.70;;;9.20;;
21894;SDS011;11112;51.270;7.224;2023-02-13T00:03:32;13.77;;;9.43;;
21894;SDS011;11112;51.270;7.224;2023-02-13T00:05:59;13.93;;;10.10;;
21894;SDS011;11112;51.270;7.224;2023-02-13T00:08:26;13.25;;;9.40;;
21894;SDS011;11112;51.270;7.224;2023-02-13T00:10:55;12.25;;;9.07;;
21894;SDS011;11112;51.270;7.224;2023-02-13T00:13:22;14.32;;;9.77;;
21894;SDS011;11112;51.270;7.224;2023-02-13T00:15:55;16.45;;;10.63;;
21894;SDS011;11112;51.270;7.224;2023-02-13T00:18:24;13.80;;;9.45;;
21894;SDS011;11112;51.270;7.224;2023-02-13T00:20:56;15.55;;;9.90;;
21894;SDS011;11112;51.270;7.224;2023-02-13T00:23:28;13.25;;;9.18;;
21894;SDS011;11112;51.270;7.224;2023-02-13T00:25:57;12.90;;;9.25;;
21894;SDS011;11112;51.270;7.224;2023-02-13T00:28:26;12.75;;;9.07;;
21894;SDS011;11112;51.270;7.224;2023-02-13T00:31:00;13.45;;;9.15;;
21894;SDS011;11112;51.270;7.224;2023-02-13T00:33:29;14.25;;;9.52;;
21894;SDS011;11112;51.270;7.224;2023-02-13T00:36:04;11.38;;;8.43;;
21894;SDS011;11112;51.270;7.224;2023-02-13T00:38:34;12.82;;;8.57;;
21894;SDS011;11112;51.270;7.224;2023-02-13T00:41:03;11.25;;;7.82;;
21894;SDS011;11112;51.270;7.224;2023-02-13T00:43:31;13.70;;;8.95;;
21894;SDS011;11112;51.270;7.224;2023-02-13T00:46:00;11.27;;;8.10;;
21894;SDS011;11112;51.270;7.224;2023-02-13T00:48:29;11.52;;;7.90;;
21894;SDS011;11112;51.270;7.224;2023-02-13T00:50:59;12.68;;;8.70;;
21894;SDS011;11112;51.270;7.224;2023-02-13T00:53:27;11.05;;;7.63;;
21894;SDS011;11112;51.270;7.224;2023-02-13T00:55:54;11.77;;;8.10;;
21894;SDS011;11112;51.270;7.224;2023-02-13T00:58:22;11.15;;;7.63;;
21894;SDS011;11112;51.270;7.224;2023-02-13T01:00:50;11.23;;;7.88;;
21894;SDS011;11112;51.270;7.224;2023-02-13T01:03:20;10.50;;;7.15;;
21894;SDS011;11112;51.270;7.224;2023-02-13T01:05:48;11.23;;;7.68;;
21894;SDS011;11112;51.270;7.224;2023-02-13T01:08:16;11.13;;;7.60;;
21894;SDS011;11112;51.270;7.224;2023-02-13T01:10:45;9.80;;;7.13;;
21894;SDS011;11112;51.270;7.224;2023-02-13T01:13:15;10.55;;;7.35;;
21894;SDS011;11112;51.270;7.224;2023-02-13T01:15:43;10.70;;;7.63;;
21894;SDS011;11112;51.270;7.224;2023-02-13T01:18:12;10.13;;;7.07;;
21894;SDS011;11112;51.270;7.224;2023-02-13T01:20:44;9.57;;;7.05;;
21894;SDS011;11112;51.270;7.224;2023-02-13T01:23:21;9.75;;;6.88;;
21894;SDS011;11112;51.270;7.224;2023-02-13T01:25:48;10.88;;;7.45;;
21894;SDS011;11112;51.270;7.224;2023-02-13T01:28:16;9.55;;;6.97;;
21894;SDS011;11112;51.270;7.224;2023-02-13T01:30:43;10.35;;;7.32;;
21894;SDS011;11112;51.270;7.224;2023-02-13T01:33:11;8.50;;;6.28;;
21894;SDS011;11112;51.270;7.224;2023-02-13T01:35:40;10.30;;;7.40;;
21894;SDS011;11112;51.270;7.224;2023-02-13T01:38:18;9.75;;;7.00;;
21894;SDS011;11112;51.270;7.224;2023-02-13T01:40:46;9.48;;;6.40;;
21894;SDS011;11112;51.270;7.224;2023-02-13T01:43:14;9.65;;;7.25;;
21894;SDS011;11112;51.270;7.224;2023-02-13T01:45:42;9.82;;;6.60;;
21894;SDS011;11112;51.270;7.224;2023-02-13T01:48:12;9.07;;;6.05;;
21894;SDS011;11112;51.270;7.224;2023-02-13T01:50:44;9.73;;;6.68;;
21894;SDS011;11112;51.270;7.224;2023-02-13T01:53:17;10.45;;;6.45;;
21894;SDS011;11112;51.270;7.224;2023-02-13T01:55:51;9.07;;;6.22;;
21894;SDS011;11112;51.270;7.224;2023-02-13T01:58:23;9.25;;;6.30;;
21894;SDS011;11112;51.270;7.224;2023-02-13T02:00:53;8.88;;;6.43;;
21894;SDS011;11112;51.270;7.224;2023-02-13T02:03:22;9.32;;;6.32;;
21894;SDS011;11112;51.270;7.224;2023-02-13T02:05:56;8.95;;;6.72;;
21894;SDS011;11112;51.270;7.224;2023-02-13T02:08:26;10.45;;;7.00;;
21894;SDS011;11112;51.270;7.224;2023-02-13T02:10:54;9.65;;;6.88;;
21894;SDS011;11112;51.270;7.224;2023-02-13T02:13:29;10.13;;;7.32;;
21894;SDS011;11112;51.270;7.224;2023-02-13T02:15:56;9.60;;;6.65;;
21894;SDS011;11112;51.270;7.224;2023-02-13T02:18:23;9.75;;;7.00;;
21894;SDS011;11112;51.270;7.224;2023-02-13T02:24:33;10.23;;;6.90;;
21894;SDS011;11112;51.270;7.224;2023-02-13T02:27:38;9.50;;;6.50;;
21894;SDS011;11112;51.270;7.224;2023-02-13T02:30:49;9.70;;;6.90;;
21894;SDS011;11112;51.270;7.224;2023-02-13T02:34:01;12.83;;;6.80;;
21894;SDS011;11112;51.270;7.224;2023-02-13T02:36:45;9.20;;;6.28;;
21894;SDS011;11112;51.270;7.224;2023-02-13T02:39:38;7.40;;;5.53;;
21894;SDS011;11112;51.270;7.224;2023-02-13T02:42:18;7.38;;;5.40;;
21894;SDS011;11112;51.270;7.224;2023-02-13T02:44:55;7.95;;;5.50;;
21894;SDS011;11112;51.270;7.224;2023-02-13T02:47:32;7.22;;;5.07;;
21894;SDS011;11112;51.270;7.224;2023-02-13T02:50:32;8.45;;;4.90;;
21894;SDS011;11112;51.270;7.224;2023-02-13T02:53:05;7.93;;;5.15;;
21894;SDS011;11112;51.270;7.224;2023-02-13T02:55:45;6.97;;;5.00;;
21894;SDS011;11112;51.270;7.224;2023-02-13T02:58:22;6.93;;;4.82;;
21894;SDS011;11112;51.270;7.224;2023-02-13T03:01:15;6.83;;;4.87;;
21894;SDS011;11112;51.270;7.224;2023-02-13T03:04:03;7.85;;;5.50;;
21894;SDS011;11112;51.270;7.224;2023-02-13T03:06:50;7.70;;;5.15;;
21894;SDS011;11112;51.270;7.224;2023-02-13T03:09:22;7.68;;;5.47;;
21894;SDS011;11112;51.270;7.224;2023-02-13T03:12:12;9.00;;;6.00;;
21894;SDS011;11112;51.270;7.224;2023-02-13T03:15:02;9.30;;;6.45;;
21894;SDS011;11112;51.270;7.224;2023-02-13T03:17:31;8.52;;;6.00;;
21894;SDS011;11112;51.270;7.224;2023-02-13T03:20:19;9.00;;;6.30;;
21894;SDS011;11112;51.270;7.224;2023-02-13T03:23:14;9.30;;;6.03;;
21894;SDS011;11112;51.270;7.224;2023-02-13T03:25:59;9.20;;;6.43;;
21894;SDS011;11112;51.270;7.224;2023-02-13T03:28:45;8.95;;;6.47;;
21894;SDS011;11112;51.270;7.224;2023-02-13T03:31:39;9.90;;;6.53;;
21894;SDS011;11112;51.270;7.224;2023-02-13T03:34:26;10.07;;;6.75;;
21894;SDS011;11112;51.270;7.224;2023-02-13T03:37:21;11.13;;;7.00;;
21894;SDS011;11112;51.270;7.224;2023-02-13T03:40:15;10.00;;;6.70;;
21894;SDS011;11112;51.270;7.224;2023-02-13T03:42:50;12.15;;;7.43;;
21894;SDS011;11112;51.270;7.224;2023-02-13T03:45:21;10.93;;;7.43;;
21894;SDS011;11112;51.270;7.224;2023-02-13T03:48:11;10.40;;;6.95;;
21894;SDS011;11112;51.270;7.224;2023-02-13T03:50:57;11.85;;;7.53;;
21894;SDS011;11112;51.270;7.224;2023-02-13T03:53:26;11.32;;;7.78;;
21894;SDS011;11112;51.270;7.224;2023-02-13T03:56:01;12.02;;;7.53;;
21894;SDS011;11112;51.270;7.224;2023-02-13T03:58:48;11.48;;;8.27;;
21894;SDS011;11112;51.270;7.224;2023-02-13T04:01:36;12.88;;;8.15;;
21894;SDS011;11112;51.270;7.224;2023-02-13T04:04:07;12.45;;;8.50;;
21894;SDS011;11112;51.270;7.224;2023-02-13T04:06:37;12.17;;;8.20;;
21894;SDS011;11112;51.270;7.224;2023-02-13T04:09:12;12.20;;;8.32;;
21894;SDS011;11112;51.270;7.224;2023-02-13T04:11:44;12.77;;;8.27;;
21894;SDS011;11112;51.270;7.224;2023-02-13T04:14:19;11.68;;;7.90;;
21894;SDS011;11112;51.270;7.224;2023-02-13T04:16:51;12.55;;;8.40;;
21894;SDS011;11112;51.270;7.224;2023-02-13T04:19:23;11.98;;;8.40;;
21894;SDS011;11112;51.270;7.224;2023-02-13T04:21:54;12.75;;;8.50;;
21894;SDS011;11112;51.270;7.224;2023-02-13T04:24:23;12.60;;;8.63;;
21894;SDS011;11112;51.270;7.224;2023-02-13T04:26:53;13.02;;;8.90;;
21894;SDS011;11112;51.270;7.224;2023-02-13T04:29:21;13.27;;;8.52;;
21894;SDS011;11112;51.270;7.224;2023-02-13T04:31:53;12.50;;;8.27;;
21894;SDS011;11112;51.270;7.224;2023-02-13T04:34:20;13.63;;;8.57;;
21894;SDS011;11112;51.270;7.224;2023-02-13T04:36:48;13.35;;;8.65;;
21894;SDS011;11112;51.270;7.224;2023-02-13T04:39:16;15.27;;;8.98;;
21894;SDS011;11112;51.270;7.224;2023-02-13T04:41:43;11.98;;;8.07;;
21894;SDS011;11112;51.270;7.224;2023-02-13T04:44:12;13.65;;;9.00;;
21894;SDS011;11112;51.270;7.224;2023-02-13T04:46:40;16.70;;;9.32;;
21894;SDS011;11112;51.270;7.224;2023-02-13T04:49:08;16.42;;;9.27;;
21894;SDS011;11112;51.270;7.224;2023-02-13T04:51:36;15.40;;;9.70;;
21894;SDS011;11112;51.270;7.224;2023-02-13T04:54:03;14.02;;;9.93;;
21894;SDS011;11112;51.270;7.224;2023-02-13T04:56:31;14.68;;;9.75;;
21894;SDS011;11112;51.270;7.224;2023-02-13T04:58:58;15.15;;;10.25;;
21894;SDS011;11112;51.270;7.224;2023-02-13T05:01:27;13.90;;;9.45;;
21894;SDS011;11112;51.270;7.224;2023-02-13T05:03:54;14.70;;;9.55;;
21894;SDS011;11112;51.270;7.224;2023-02-13T05:06:21;14.95;;;10.05;;
21894;SDS011;11112;51.270;7.224;2023-02-13T05:08:49;13.85;;;9.55;;
21894;SDS011;11112;51.270;7.224;2023-02-13T05:11:16;16.15;;;10.32;;
21894;SDS011;11112;51.270;7.224;2023-02-13T05:13:43;16.60;;;10.18;;
21894;SDS011;11112;51.270;7.224;2023-02-13T05:16:11;15.07;;;10.07;;
21894;SDS011;11112;51.270;7.224;2023-02-13T05:18:40;15.05;;;10.05;;
21894;SDS011;11112;51.270;7.224;2023-02-13T05:21:07;16.80;;;10.68;;
21894;SDS011;11112;51.270;7.224;2023-02-13T05:23:51;16.60;;;10.48;;
21894;SDS011;11112;51.270;7.224;2023-02-13T05:26:18;15.38;;;10.23;;
21894;SDS011;11112;51.270;7.224;2023-02-13T05:28:45;15.48;;;10.68;;
21894;SDS011;11112;51.270;7.224;2023-02-13T05:31:30;16.30;;;10.93;;
21894;SDS011;11112;51.270;7.224;2023-02-13T05:34:02;15.57;;;10.30;;
21894;SDS011;11112;51.270;7.224;2023-02-13T05:36:30;14.88;;;10.35;;
21894;SDS011;11112;51.270;7.224;2023-02-13T05:38:58;17.27;;;10.93;;
21894;SDS011;11112;51.270;7.224;2023-02-13T05:41:26;15.30;;;10.57;;
21894;SDS011;11112;51.270;7.224;2023-02-13T05:43:53;15.07;;;10.20;;
21894;SDS011;11112;51.270;7.224;2023-02-13T05:46:20;14.48;;;10.35;;
21894;SDS011;11112;51.270;7.224;2023-02-13T05:48:50;14.85;;;10.05;;
21894;SDS011;11112;51.270;7.224;2023-02-13T05:51:20;14.40;;;10.20;;
21894;SDS011;11112;51.270;7.224;2023-02-13T05:53:48;14.82;;;10.60;;
21894;SDS011;11112;51.270;7.224;2023-02-13T05:56:15;14.18;;;10.35;;
21894;SDS011;11112;51.270;7.224;2023-02-13T05:58:42;14.98;;;10.13;;
21894;SDS011;11112;51.270;7.224;2023-02-13T06:01:10;17.63;;;10.60;;
21894;SDS011;11112;51.270;7.224;2023-02-13T06:03:38;13.38;;;9.77;;
21894;SDS011;11112;51.270;7.224;2023-02-13T06:06:05;13.63;;;9.55;;
21894;SDS011;11112;51.270;7.224;2023-02-13T06:08:35;15.93;;;10.88;;
21894;SDS011;11112;51.270;7.224;2023-02-13T06:11:02;14.05;;;10.43;;
21894;SDS011;11112;51.270;7.224;2023-02-13T06:13:30;14.68;;;10.43;;
21894;SDS011;11112;51.270;7.224;2023-02-13T06:15:57;15.63;;;10.02;;
21894;SDS011;11112;51.270;7.224;2023-02-13T06:18:25;14.98;;;10.70;;
21894;SDS011;11112;51.270;7.224;2023-02-13T06:20:52;15.32;;;10.48;;
21894;SDS011;11112;51.270;7.224;2023-02-13T06:23:19;14.30;;;10.55;;
21894;SDS011;11112;51.270;7.224;2023-02-13T06:25:48;15.40;;;10.05;;
21894;SDS011;11112;51.270;7.224;2023-02-13T06:28:15;14.75;;;10.45;;
21894;SDS011;11112;51.270;7.224;2023-02-13T06:30:46;12.85;;;9.68;;
21894;SDS011;11112;51.270;7.224;2023-02-13T06:33:14;14.35;;;10.15;;
21894;SDS011;11112;51.270;7.224;2023-02-13T06:35:41;15.45;;;10.35;;
21894;SDS011;11112;51.270;7.224;2023-02-13T06:38:08;15.40;;;10.25;;
21894;SDS011;11112;51.270;7.224;2023-02-13T06:40:36;15.43;;;10.90;;
21894;SDS011;11112;51.270;7.224;2023-02-13T06:43:05;16.75;;;11.00;;
21894;SDS011;11112;51.270;7.224;2023-02-13T06:45:32;15.88;;;10.50;;
21894;SDS011;11112;51.270;7.224;2023-02-13T06:48:00;13.52;;;10.13;;
21894;SDS011;11112;51.270;7.224;2023-02-13T06:50:27;16.45;;;10.50;;
21894;SDS011;11112;51.270;7.224;2023-02-13T06:52:54;14.15;;;10.10;;
21894;SDS011;11112;51.270;7.224;2023-02-13T06:55:22;15.43;;;10.68;;
21894;SDS011;11112;51.270;7.224;2023-02-13T06:57:53;16.50;;;11.00;;
21894;SDS011;11112;51.270;7.224;2023-02-13T07:00:22;15.15;;;10.40;;
21894;SDS011;11112;51.270;7.224;2023-02-13T07:02:50;14.98;;;10.85;;
21894;SDS011;11112;51.270;7.224;2023-02-13T07:05:18;14.50;;;10.32;;
21894;SDS011;11112;51.270;7.224;2023-02-13T07:07:45;15.05;;;10.68;;
21894;SDS011;11112;51.270;7.224;2023-02-13T07:10:13;14.88;;;10.57;;
21894;SDS011;11112;51.270;7.224;2023-02-13T07:12:40;15.35;;;10.85;;
21894;SDS011;11112;51.270;7.224;2023-02-13T07:15:08;14.90;;;10.25;;
21894;SDS011;11112;51.270;7.224;2023-02-13T07:17:37;15.20;;;10.65;;
21894;SDS011;11112;51.270;7.224;2023-02-13T07:20:05;16.48;;;11.48;;
21894;SDS011;11112;51.270;7.224;2023-02-13T07:22:34;17.02;;;11.35;;
21894;SDS011;11112;51.270;7.224;2023-02-13T07:25:01;16.85;;;11.18;;
21894;SDS011;11112;51.270;7.224;2023-02-13T07:27:28;16.70;;;11.27;;
21894;SDS011;11112;51.270;7.224;2023-02-13T07:29:56;16.50;;;11.20;;
21894;SDS011;11112;51.270;7.224;2023-02-13T07:32:24;15.55;;;11.15;;
21894;SDS011;11112;51.270;7.224;2023-02-13T07:34:56;14.43;;;10.98;;
21894;SDS011;11112;51.270;7.224;2023-02-13T07:37:23;15.63;;;11.20;;
21894;SDS011;11112;51.270;7.224;2023-02-13T07:39:50;15.30;;;11.07;;
21894;SDS011;11112;51.270;7.224;2023-02-13T07:42:17;16.67;;;11.07;;
21894;SDS011;11112;51.270;7.224;2023-02-13T07:44:45;16.95;;;11.35;;
21894;SDS011;11112;51.270;7.224;2023-02-13T07:47:12;15.50;;;10.70;;
21894;SDS011;11112;51.270;7.224;2023-02-13T07:49:40;14.40;;;10.48;;
21894;SDS011;11112;51.270;7.224;2023-02-13T07:52:10;15.13;;;10.77;;
21894;SDS011;11112;51.270;7.224;2023-02-13T07:54:38;15.07;;;10.82;;
21894;SDS011;11112;51.270;7.224;2023-02-13T07:57:11;16.05;;;10.35;;
21894;SDS011;11112;51.270;7.224;2023-02-13T07:59:39;15.38;;;10.73;;
21894;SDS011;11112;51.270;7.224;2023-02-13T08:02:09;14.50;;;10.52;;
21894;SDS011;11112;51.270;7.224;2023-02-13T08:04:38;17.10;;;10.77;;
21894;SDS011;11112;51.270;7.224;2023-02-13T08:07:05;14.85;;;10.77;;
21894;SDS011;11112;51.270;7.224;2023-02-13T08:09:37;16.42;;;10.88;;
21894;SDS011;11112;51.270;7.224;2023-02-13T08:12:22;16.70;;;10.95;;
21894;SDS011;11112;51.270;7.224;2023-02-13T08:14:49;14.65;;;10.43;;
21894;SDS011;11112;51.270;7.224;2023-02-13T08:17:18;15.18;;;10.68;;
21894;SDS011;11112;51.270;7.224;2023-02-13T08:19:45;15.18;;;10.45;;
21894;SDS011;11112;51.270;7.224;2023-02-13T08:22:12;14.38;;;10.20;;
21894;SDS011;11112;51.270;7.224;2023-02-13T08:24:41;14.35;;;10.43;;
21894;SDS011;11112;51.270;7.224;2023-02-13T08:27:10;13.57;;;10.18;;
21894;SDS011;11112;51.270;7.224;2023-02-13T08:29:38;13.68;;;10.45;;
21894;SDS011;11112;51.270;7.224;2023-02-13T08:32:06;15.45;;;10.77;;
21894;SDS011;11112;51.270;7.224;2023-02-13T08:34:34;14.57;;;10.07;;
21894;SDS011;11112;51.270;7.224;2023-02-13T08:37:02;14.65;;;10.07;;
21894;SDS011;11112;51.270;7.224;2023-02-13T08:39:30;15.98;;;10.60;;
21894;SDS011;11112;51.270;7.224;2023-02-13T08:41:58;14.35;;;10.27;;
21894;SDS011;11112;51.270;7.224;2023-02-13T08:44:26;16.38;;;9.98;;
21894;SDS011;11112;51.270;7.224;2023-02-13T08:46:53;15.02;;;10.20;;
21894;SDS011;11112;51.270;7.224;2023-02-13T08:49:21;15.48;;;10.10;;
21894;SDS011;11112;51.270;7.224;2023-02-13T08:51:49;14.88;;;10.18;;
21894;SDS011;11112;51.270;7.224;2023-02-13T08:54:16;14.93;;;10.25;;
21894;SDS011;11112;51.270;7.224;2023-02-13T08:56:45;14.75;;;10.05;;
21894;SDS011;11112;51.270;7.224;2023-02-13T08:59:14;15.35;;;9.73;;
21894;SDS011;11112;51.270;7.224;2023-02-13T09:01:42;15.10;;;9.88;;
21894;SDS011;11112;51.270;7.224;2023-02-13T09:04:09;13.45;;;9.35;;
21894;SDS011;11112;51.270;7.224;2023-02-13T09:06:39;14.32;;;9.35;;
21894;SDS011;11112;51.270;7.224;2023-02-13T09:09:07;13.55;;;9.35;;
21894;SDS011;11112;51.270;7.224;2023-02-13T09:11:34;16.08;;;9.55;;
21894;SDS011;11112;51.270;7.224;2023-02-13T09:14:01;14.27;;;9.73;;
21894;SDS011;11112;51.270;7.224;2023-02-13T09:16:30;12.50;;;8.88;;
21894;SDS011;11112;51.270;7.224;2023-02-13T09:18:58;13.82;;;9.38;;
21894;SDS011;11112;51.270;7.224;2023-02-13T09:21:25;12.60;;;8.98;;
21894;SDS011;11112;51.270;7.224;2023-02-13T09:23:53;12.52;;;8.77;;
21894;SDS011;11112;51.270;7.224;2023-02-13T09:26:20;13.77;;;9.10;;
21894;SDS011;11112;51.270;7.224;2023-02-13T09:28:48;12.63;;;8.55;;
21894;SDS011;11112;51.270;7.224;2023-02-13T09:31:16;12.02;;;8.98;;
21894;SDS011;11112;51.270;7.224;2023-02-13T09:33:47;12.27;;;8.27;;
21894;SDS011;11112;51.270;7.224;2023-02-13T09:36:15;13.10;;;9.35;;
21894;SDS011;11112;51.270;7.224;2023-02-13T09:38:46;12.85;;;8.95;;
21894;SDS011;11112;51.270;7.224;2023-02-13T09:41:18;11.30;;;8.20;;
21894;SDS011;11112;51.270;7.224;2023-02-13T09:43:51;13.65;;;8.68;;
21894;SDS011;11112;51.270;7.224;2023-02-13T09:46:27;12.73;;;9.00;;
21894;SDS011;11112;51.270;7.224;2023-02-13T09:49:00;13.27;;;8.85;;
21894;SDS011;11112;51.270;7.224;2023-02-13T09:51:33;13.02;;;8.98;;
21894;SDS011;11112;51.270;7.224;2023-02-13T09:54:02;12.75;;;8.82;;
21894;SDS011;11112;51.270;7.224;2023-02-13T09:56:39;12.38;;;8.05;;
21894;SDS011;11112;51.270;7.224;2023-02-13T09:59:17;12.65;;;8.75;;
21894;SDS011;11112;51.270;7.224;2023-02-13T10:02:13;11.88;;;8.13;;
21894;SDS011;11112;51.270;7.224;2023-02-13T10:05:02;14.48;;;8.57;;
21894;SDS011;11112;51.270;7.224;2023-02-13T10:07:47;12.85;;;8.43;;
21894;SDS011;11112;51.270;7.224;2023-02-13T10:10:25;12.32;;;8.35;;
21894;SDS011;11112;51.270;7.224;2023-02-13T10:13:05;10.55;;;7.80;;
21894;SDS011;11112;51.270;7.224;2023-02-13T10:15:50;11.48;;;7.70;;
21894;SDS011;11112;51.270;7.224;2023-02-13T10:18:27;12.27;;;8.43;;
21894;SDS011;11112;51.270;7.224;2023-02-13T10:21:08;10.80;;;7.70;;
21894;SDS011;11112;51.270;7.224;2023-02-13T10:23:38;12.45;;;7.82;;
21894;SDS011;11112;51.270;7.224;2023-02-13T10:26:11;11.10;;;7.55;;
21894;SDS011;11112;51.270;7.224;2023-02-13T10:28:45;10.00;;;7.28;;
21894;SDS011;11112;51.270;7.224;2023-02-13T10:31:34;11.57;;;7.35;;
21894;SDS011;11112;51.270;7.224;2023-02-13T10:34:04;11.32;;;7.75;;
21894;SDS011;11112;51.270;7.224;2023-02-13T10:36:43;10.77;;;7.50;;
21894;SDS011;11112;51.270;7.224;2023-02-13T10:39:17;9.57;;;6.78;;
21894;SDS011;11112;51.270;7.224;2023-02-13T10:41:58;12.13;;;6.90;;
21894;SDS011;11112;51.270;7.224;2023-02-13T10:44:37;9.65;;;6.53;;
21894;SDS011;11112;51.270;7.224;2023-02-13T10:47:17;9.60;;;6.72;;
21894;SDS011;11112;51.270;7.224;2023-02-13T10:50:07;13.73;;;7.35;;
21894;SDS011;11112;51.270;7.224;2023-02-13T10:52:51;11.07;;;6.80;;
21894;SDS011;11112;51.270;7.224;2023-02-13T10:55:48;10.15;;;6.90;;
21894;SDS011;11112;51.270;7.224;2023-02-13T10:58:39;12.40;;;6.88;;
21894;SDS011;11112;51.270;7.224;2023-02-13T11:01:20;10.93;;;6.68;;
21894;SDS011;11112;51.270;7.224;2023-02-13T11:04:03;10.45;;;6.53;;
21894;SDS011;11112;51.270;7.224;2023-02-13T11:06:33;10.38;;;7.00;;
21894;SDS011;11112;51.270;7.224;2023-02-13T11:09:05;8.10;;;5.80;;
21894;SDS011;11112;51.270;7.224;2023-02-13T11:11:33;9.40;;;6.43;;
21894;SDS011;11112;51.270;7.224;2023-02-13T11:14:08;9.00;;;6.50;;
21894;SDS011;11112;51.270;7.224;2023-02-13T11:16:43;10.40;;;6.63;;
21894;SDS011;11112;51.270;7.224;2023-02-13T11:19:24;9.43;;;6.40;;
21894;SDS011;11112;51.270;7.224;2023-02-13T11:21:57;9.32;;;6.60;;
21894;SDS011;11112;51.270;7.224;2023-02-13T11:24:29;9.32;;;6.22;;
21894;SDS011;11112;51.270;7.224;2023-02-13T11:26:59;10.38;;;6.55;;
21894;SDS011;11112;51.270;7.224;2023-02-13T11:29:33;10.02;;;6.80;;
21894;SDS011;11112;51.270;7.224;2023-02-13T11:32:04;10.82;;;6.10;;
21894;SDS011;11112;51.270;7.224;2023-02-13T11:34:44;10.27;;;5.97;;
21894;SDS011;11112;51.270;7.224;2023-02-13T11:37:22;8.65;;;5.07;;
21894;SDS011;11112;51.270;7.224;2023-02-13T11:40:20;8.57;;;4.93;;
21894;SDS011;11112;51.270;7.224;2023-02-13T11:42:56;6.75;;;4.63;;
21894;SDS011;11112;51.270;7.224;2023-02-13T11:45:24;8.20;;;4.50;;
21894;SDS011;11112;51.270;7.224;2023-02-13T11:47:52;6.68;;;4.30;;
21894;SDS011;11112;51.270;7.224;2023-02-13T11:50:22;6.00;;;4.30;;
21894;SDS011;11112;51.270;7.224;2023-02-13T11:52:54;7.40;;;5.22;;
21894;SDS011;11112;51.270;7.224;2023-02-13T11:55:26;7.57;;;5.50;;
21894;SDS011;11112;51.270;7.224;2023-02-13T11:57:58;9.25;;;5.78;;
21894;SDS011;11112;51.270;7.224;2023-02-13T12:00:30;8.27;;;5.30;;
21894;SDS011;11112;51.270;7.224;2023-02-13T12:03:23;7.05;;;5.13;;
21894;SDS011;11112;51.270;7.224;2023-02-13T12:05:58;9.02;;;5.25;;
21894;SDS011;11112;51.270;7.224;2023-02-13T12:08:31;8.25;;;5.38;;
21894;SDS011;11112;51.270;7.224;2023-02-13T12:11:14;8.95;;;5.78;;
21894;SDS011;11112;51.270;7.224;2023-02-13T12:13:48;8.10;;;4.97;;
21894;SDS011;11112;51.270;7.224;2023-02-13T12:16:20;7.72;;;5.00;;
21894;SDS011;11112;51.270;7.224;2023-02-13T12:18:57;7.22;;;4.90;;
21894;SDS011;11112;51.270;7.224;2023-02-13T12:21:32;7.30;;;4.97;;
21894;SDS011;11112;51.270;7.224;2023-02-13T12:24:16;9.05;;;4.65;;
21894;SDS011;11112;51.270;7.224;2023-02-13T12:27:08;6.05;;;4.07;;
21894;SDS011;11112;51.270;7.224;2023-02-13T12:29:52;7.13;;;4.50;;
21894;SDS011;11112;51.270;7.224;2023-02-13T12:32:38;7.38;;;4.88;;
21894;SDS011;11112;51.270;7.224;2023-02-13T12:38:10;7.37;;;4.37;;
21894;SDS011;11112;51.270;7.224;2023-02-13T12:41:10;7.68;;;3.95;;
21894;SDS011;11112;51.270;7.224;2023-02-13T12:47:01;5.95;;;3.90;;
21894;SDS011;11112;51.270;7.224;2023-02-13T12:53:00;7.45;;;4.93;;
21894;SDS011;11112;51.270;7.224;2023-02-13T12:55:48;6.00;;;4.22;;
21894;SDS011;11112;51.270;7.224;2023-02-13T12:58:39;7.93;;;3.95;;
21894;SDS011;11112;51.270;7.224;2023-02-13T13:01:30;7.32;;;4.30;;
21894;SDS011;11112;51.270;7.224;2023-02-13T13:04:39;5.50;;;3.97;;
21894;SDS011;11112;51.270;7.224;2023-02-13T13:10:23;4.75;;;3.00;;
21894;SDS011;11112;51.270;7.224;2023-02-13T13:13:06;4.85;;;3.10;;
21894;SDS011;11112;51.270;7.224;2023-02-13T13:15:45;6.70;;;3.42;;
21894;SDS011;11112;51.270;7.224;2023-02-13T13:18:24;7.38;;;4.05;;
21894;SDS011;11112;51.270;7.224;2023-02-13T13:21:10;6.70;;;3.83;;
21894;SDS011;11112;51.270;7.224;2023-02-13T13:23:51;6.63;;;4.10;;
21894;SDS011;11112;51.270;7.224;2023-02-13T13:26:27;4.85;;;3.45;;
21894;SDS011;11112;51.270;7.224;2023-02-13T13:29:03;5.53;;;3.33;;
21894;SDS011;11112;51.270;7.224;2023-02-13T13:31:37;4.28;;;2.70;;
21894;SDS011;11112;51.270;7.224;2023-02-13T13:34:10;4.40;;;3.03;;
21894;SDS011;11112;51.270;7.224;2023-02-13T13:36:45;6.28;;;3.40;;
21894;SDS011;11112;51.270;7.224;2023-02-13T13:41:56;4.20;;;2.65;;
21894;SDS011;11112;51.270;7.224;2023-02-13T13:47:45;4.72;;;2.25;;
21894;SDS011;11112;51.270;7.224;2023-02-13T13:50:29;4.93;;;2.08;;
21894;SDS011;11112;51.270;7.224;2023-02-13T13:53:05;4.10;;;2.28;;
21894;SDS011;11112;51.270;7.224;2023-02-13T13:55:58;4.45;;;2.50;;
21894;SDS011;11112;51.270;7.224;2023-02-13T13:58:37;3.15;;;2.00;;
21894;SDS011;11112;51.270;7.224;2023-02-13T14:03:59;4.13;;;2.45;;
21894;SDS011;11112;51.270;7.224;2023-02-13T14:09:46;4.80;;;2.63;;
21894;SDS011;11112;51.270;7.224;2023-02-13T14:15:03;3.63;;;2.30;;
21894;SDS011;11112;51.270;7.224;2023-02-13T14:20:31;3.10;;;2.15;;
21894;SDS011;11112;51.270;7.224;2023-02-13T14:26:16;4.28;;;1.92;;
21894;SDS011;11112;51.270;7.224;2023-02-13T14:28:56;2.58;;;1.67;;
21894;SDS011;11112;51.270;7.224;2023-02-13T14:31:42;2.85;;;1.90;;
21894;SDS011;11112;51.270;7.224;2023-02-13T14:34:45;3.65;;;1.80;;
21894;SDS011;11112;51.270;7.224;2023-02-13T14:37:28;3.30;;;1.80;;
21894;SDS011;11112;51.270;7.224;2023-02-13T14:43:19;3.40;;;1.60;;
21894;SDS011;11112;51.270;7.224;2023-02-13T14:45:53;2.58;;;1.42;;
21894;SDS011;11112;51.270;7.224;2023-02-13T14:48:32;2.55;;;1.40;;
21894;SDS011;11112;51.270;7.224;2023-02-13T14:51:05;2.92;;;1.27;;
21894;SDS011;11112;51.270;7.224;2023-02-13T14:53:45;3.72;;;1.35;;
21894;SDS011;11112;51.270;7.224;2023-02-13T14:56:20;3.28;;;1.30;;
21894;SDS011;11112;51.270;7.224;2023-02-13T14:58:49;2.35;;;1.30;;
21894;SDS011;11112;51.270;7.224;2023-02-13T15:04:11;2.00;;;1.27;;
21894;SDS011;11112;51.270;7.224;2023-02-13T15:06:43;1.50;;;1.00;;
21894;SDS011;11112;51.270;7.224;2023-02-13T15:09:16;2.22;;;1.00;;
21894;SDS011;11112;51.270;7.224;2023-02-13T15:11:51;1.38;;;1.00;;
21894;SDS011;11112;51.270;7.224;2023-02-13T15:14:32;2.78;;;1.02;;
21894;SDS011;11112;51.270;7.224;2023-02-13T15:17:02;2.03;;;0.80;;
21894;SDS011;11112;51.270;7.224;2023-02-13T15:19:41;1.92;;;1.10;;
21894;SDS011;11112;51.270;7.224;2023-02-13T15:22:16;1.80;;;0.98;;
21894;SDS011;11112;51.270;7.224;2023-02-13T15:24:46;1.95;;;1.08;;
21894;SDS011;11112;51.270;7.224;2023-02-13T15:27:18;2.13;;;1.10;;
21894;SDS011;11112;51.270;7.224;2023-02-13T15:30:17;2.30;;;1.20;;
21894;SDS011;11112;51.270;7.224;2023-02-13T15:32:52;1.83;;;1.23;;
21894;SDS011;11112;51.270;7.224;2023-02-13T15:35:22;2.88;;;1.30;;
21894;SDS011;11112;51.270;7.224;2023-02-13T15:37:52;1.73;;;1.05;;
21894;SDS011;11112;51.270;7.224;2023-02-13T15:40:21;1.90;;;1.00;;
21894;SDS011;11112;51.270;7.224;2023-02-13T15:42:54;2.17;;;1.10;;
21894;SDS011;11112;51.270;7.224;2023-02-13T15:45:26;1.55;;;0.93;;
21894;SDS011;11112;51.270;7.224;2023-02-13T15:47:55;2.15;;;1.00;;
21894;SDS011;11112;51.270;7.224;2023-02-13T15:50:25;3.13;;;0.90;;
21894;SDS011;11112;51.270;7.224;2023-02-13T15:52:56;1.98;;;1.10;;
21894;SDS011;11112;51.270;7.224;2023-02-13T15:55:27;2.47;;;1.20;;
21894;SDS011;11112;51.270;7.224;2023-02-13T15:57:59;3.08;;;1.60;;